Uitenhage, South Africa
Current Conditions -  °F | °C
As of 10:00 AM on Monday 20 Oct 2014 (Local Time) from FAPE Reporting Station
Broken Clouds Broken Clouds  
Wind Chill: 68°   Ceiling: 3900
Heat Index: 68°   Visibility: 6mi
Dew Point: 55°   Wind: 18mph
Humidity: 64%   Direction: 70°ENE
Pressure: 30.18"   Gusts: 31mph
Location:  33.76°S, 25.39°E
Report Text: FAPE 200800Z 07016G27KT 9999 FEW027 BKN039 20/13 Q1022 NOSIG
Loading
Personal Weather Stations






























Interactive Weather Map
Tropical Storm Tracking
New forecast layout! Learn more

10-Day Weather Forecast

Advertisements
Track Severe Weather on mobile